sensor_id;sensor_type;location;lat;lon;timestamp;pressure;altitude;pressure_sealevel;temperature;humidity
75938;BME280;64615;32.062;34.834;2023-01-08T00:02:09;101356.47;;;21.37;55.00
75938;BME280;64615;32.062;34.834;2023-01-08T00:04:34;101360.00;;;21.37;54.81
75938;BME280;64615;32.062;34.834;2023-01-08T00:07:00;101355.19;;;21.39;54.93
75938;BME280;64615;32.062;34.834;2023-01-08T00:09:26;101346.38;;;21.44;54.77
75938;BME280;64615;32.062;34.834;2023-01-08T00:11:52;101337.75;;;21.47;54.71
75938;BME280;64615;32.062;34.834;2023-01-08T00:14:18;101331.06;;;21.49;54.62
75938;BME280;64615;32.062;34.834;2023-01-08T00:16:43;101338.56;;;21.47;54.73
75938;BME280;64615;32.062;34.834;2023-01-08T00:49:01;101328.81;;;21.35;58.35
75938;BME280;64615;32.062;34.834;2023-01-08T00:51:27;101311.25;;;21.37;58.20
75938;BME280;64615;32.062;34.834;2023-01-08T00:53:53;101323.25;;;21.41;57.56
75938;BME280;64615;32.062;34.834;2023-01-08T00:56:18;101325.97;;;21.41;56.80
75938;BME280;64615;32.062;34.834;2023-01-08T00:58:44;101314.91;;;21.43;56.23
75938;BME280;64615;32.062;34.834;2023-01-08T01:01:12;101312.44;;;21.41;55.66
75938;BME280;64615;32.062;34.834;2023-01-08T01:03:38;101311.84;;;21.39;55.50
75938;BME280;64615;32.062;34.834;2023-01-08T01:06:05;101320.56;;;21.41;55.18
75938;BME280;64615;32.062;34.834;2023-01-08T01:08:33;101315.97;;;21.42;55.36
75938;BME280;64615;32.062;34.834;2023-01-08T01:24:28;101294.78;;;21.27;54.98
75938;BME280;64615;32.062;34.834;2023-01-08T01:26:54;101277.34;;;21.23;54.82
75938;BME280;64615;32.062;34.834;2023-01-08T01:29:21;101279.00;;;21.24;54.79
75938;BME280;64615;32.062;34.834;2023-01-08T01:31:47;101278.19;;;21.24;54.64
75938;BME280;64615;32.062;34.834;2023-01-08T01:34:38;101273.00;;;21.22;54.45
75938;BME280;64615;32.062;34.834;2023-01-08T02:27:29;101214.00;;;21.12;53.26
75938;BME280;64615;32.062;34.834;2023-01-08T02:30:22;101207.75;;;21.12;53.10
75938;BME280;64615;32.062;34.834;2023-01-08T02:33:14;101206.94;;;21.11;52.95
75938;BME280;64615;32.062;34.834;2023-01-08T02:42:33;101208.81;;;21.11;53.04
75938;BME280;64615;32.062;34.834;2023-01-08T02:51:37;101203.06;;;21.07;53.21
75938;BME280;64615;32.062;34.834;2023-01-08T02:54:33;101211.19;;;21.07;53.12
75938;BME280;64615;32.062;34.834;2023-01-08T02:57:24;101209.03;;;21.09;53.14
75938;BME280;64615;32.062;34.834;2023-01-08T03:00:18;101212.22;;;21.06;53.11
75938;BME280;64615;32.062;34.834;2023-01-08T03:03:30;101215.75;;;21.07;53.12
75938;BME280;64615;32.062;34.834;2023-01-08T03:06:22;101210.34;;;21.07;53.00
75938;BME280;64615;32.062;34.834;2023-01-08T03:09:13;101216.38;;;21.09;53.09
75938;BME280;64615;32.062;34.834;2023-01-08T03:15:06;101215.75;;;21.07;53.12
75938;BME280;64615;32.062;34.834;2023-01-08T03:18:03;101213.06;;;21.07;53.11
75938;BME280;64615;32.062;34.834;2023-01-08T03:20:55;101204.94;;;21.07;53.17
75938;BME280;64615;32.062;34.834;2023-01-08T03:23:46;101215.75;;;21.07;53.16
75938;BME280;64615;32.062;34.834;2023-01-08T03:26:39;101206.00;;;21.06;52.94
75938;BME280;64615;32.062;34.834;2023-01-08T04:50:11;101254.16;;;21.27;53.55
75938;BME280;64615;32.062;34.834;2023-01-08T04:52:37;101258.03;;;21.31;53.32
75938;BME280;64615;32.062;34.834;2023-01-08T04:55:03;101255.31;;;21.31;53.13
75938;BME280;64615;32.062;34.834;2023-01-08T04:57:28;101256.97;;;21.32;52.93
75938;BME280;64615;32.062;34.834;2023-01-08T04:59:54;101254.38;;;21.26;53.42
75938;BME280;64615;32.062;34.834;2023-01-08T05:02:20;101263.00;;;21.23;53.80
75938;BME280;64615;32.062;34.834;2023-01-08T05:04:46;101258.28;;;21.18;53.65
75938;BME280;64615;32.062;34.834;2023-01-08T05:07:12;101260.16;;;21.18;53.62
75938;BME280;64615;32.062;34.834;2023-01-08T05:09:38;101261.69;;;21.25;53.08
75938;BME280;64615;32.062;34.834;2023-01-08T05:12:04;101261.13;;;21.23;53.14
75938;BME280;64615;32.062;34.834;2023-01-08T05:14:29;101263.00;;;21.23;52.72
75938;BME280;64615;32.062;34.834;2023-01-08T05:16:55;101262.84;;;21.52;51.58
75938;BME280;64615;32.062;34.834;2023-01-08T05:19:21;101258.78;;;21.78;51.08
75938;BME280;64615;32.062;34.834;2023-01-08T05:21:46;101264.19;;;22.02;50.25
75938;BME280;64615;32.062;34.834;2023-01-08T05:24:12;101266.94;;;22.18;49.72
75938;BME280;64615;32.062;34.834;2023-01-08T05:26:37;101263.78;;;22.10;50.18
75938;BME280;64615;32.062;34.834;2023-01-08T05:42:59;101259.72;;;21.72;50.91
75938;BME280;64615;32.062;34.834;2023-01-08T05:45:25;101262.56;;;21.77;50.72
75938;BME280;64615;32.062;34.834;2023-01-08T05:47:51;101255.84;;;21.80;50.70
75938;BME280;64615;32.062;34.834;2023-01-08T05:50:16;101269.63;;;21.78;50.56
75938;BME280;64615;32.062;34.834;2023-01-08T05:52:42;101256.91;;;21.79;50.11
75938;BME280;64615;32.062;34.834;2023-01-08T05:55:08;101256.44;;;21.82;49.87
75938;BME280;64615;32.062;34.834;2023-01-08T05:57:34;101255.94;;;21.85;49.63
75938;BME280;64615;32.062;34.834;2023-01-08T05:59:59;101256.25;;;22.12;49.08
75938;BME280;64615;32.062;34.834;2023-01-08T06:02:25;101252.25;;;22.31;48.35
75938;BME280;64615;32.062;34.834;2023-01-08T06:04:50;101250.31;;;22.43;46.13
75938;BME280;64615;32.062;34.834;2023-01-08T06:07:16;101257.81;;;22.53;44.67
75938;BME280;64615;32.062;34.834;2023-01-08T06:09:42;101264.09;;;22.70;43.97
75938;BME280;64615;32.062;34.834;2023-01-08T06:12:08;101264.31;;;22.68;44.48
75938;BME280;64615;32.062;34.834;2023-01-08T06:14:33;101266.41;;;22.78;44.52
75938;BME280;64615;32.062;34.834;2023-01-08T06:19:25;101257.19;;;22.96;44.74
75938;BME280;64615;32.062;34.834;2023-01-08T06:21:50;101263.63;;;23.06;44.68
75938;BME280;64615;32.062;34.834;2023-01-08T06:24:16;101270.50;;;23.14;44.92
75938;BME280;64615;32.062;34.834;2023-01-08T06:26:41;101275.84;;;23.26;44.78
75938;BME280;64615;32.062;34.834;2023-01-08T06:29:07;101267.28;;;23.34;44.64
75938;BME280;64615;32.062;34.834;2023-01-08T06:31:33;101264.66;;;23.39;44.48
75938;BME280;64615;32.062;34.834;2023-01-08T06:33:59;101272.28;;;23.42;44.57
75938;BME280;64615;32.062;34.834;2023-01-08T06:36:24;101276.16;;;23.46;44.38
75938;BME280;64615;32.062;34.834;2023-01-08T06:38:50;101284.06;;;23.47;44.44
75938;BME280;64615;32.062;34.834;2023-01-08T07:22:18;101288.00;;;23.40;44.91
75938;BME280;64615;32.062;34.834;2023-01-08T07:24:44;101286.38;;;23.39;44.96
75938;BME280;64615;32.062;34.834;2023-01-08T07:27:10;101287.44;;;23.38;44.96
75938;BME280;64615;32.062;34.834;2023-01-08T07:29:36;101280.38;;;23.37;44.95
75938;BME280;64615;32.062;34.834;2023-01-08T07:32:01;101277.66;;;23.37;45.06
75938;BME280;64615;32.062;34.834;2023-01-08T07:34:27;101275.28;;;23.23;45.26
75938;BME280;64615;32.062;34.834;2023-01-08T07:36:53;101274.47;;;23.06;45.77
75938;BME280;64615;32.062;34.834;2023-01-08T07:39:19;101275.31;;;23.07;45.62
75938;BME280;64615;32.062;34.834;2023-01-08T07:41:44;101279.84;;;23.01;45.83
75938;BME280;64615;32.062;34.834;2023-01-08T07:44:10;101272.44;;;22.97;46.15
75938;BME280;64615;32.062;34.834;2023-01-08T07:46:36;101276.53;;;22.99;46.06
75938;BME280;64615;32.062;34.834;2023-01-08T07:49:02;101267.56;;;22.99;46.15
75938;BME280;64615;32.062;34.834;2023-01-08T07:51:28;101268.72;;;22.86;46.34
75938;BME280;64615;32.062;34.834;2023-01-08T07:53:54;101264.28;;;22.80;46.67
75938;BME280;64615;32.062;34.834;2023-01-08T07:56:22;101260.75;;;22.79;46.75
75938;BME280;64615;32.062;34.834;2023-01-08T07:58:47;101268.72;;;22.86;46.57
75938;BME280;64615;32.062;34.834;2023-01-08T08:03:39;101260.06;;;22.89;46.47
75938;BME280;64615;32.062;34.834;2023-01-08T08:06:05;101257.88;;;22.86;46.71
75938;BME280;64615;32.062;34.834;2023-01-08T08:08:31;101238.53;;;22.83;46.82
75938;BME280;64615;32.062;34.834;2023-01-08T08:10:57;101245.50;;;22.78;46.89
75938;BME280;64615;32.062;34.834;2023-01-08T08:13:22;101244.59;;;22.73;47.18
75938;BME280;64615;32.062;34.834;2023-01-08T08:15:48;101240.94;;;22.67;47.34
75938;BME280;64615;32.062;34.834;2023-01-08T08:18:14;101234.38;;;22.63;47.37
75938;BME280;64615;32.062;34.834;2023-01-08T08:58:40;101193.13;;;22.16;48.84
75938;BME280;64615;32.062;34.834;2023-01-08T09:01:06;101189.03;;;22.14;48.82
75938;BME280;64615;32.062;34.834;2023-01-08T09:03:33;101186.56;;;22.12;49.06
75938;BME280;64615;32.062;34.834;2023-01-08T09:05:59;101181.38;;;22.11;48.91
75938;BME280;64615;32.062;34.834;2023-01-08T09:08:25;101180.00;;;22.08;49.01
75938;BME280;64615;32.062;34.834;2023-01-08T09:10:50;101168.06;;;22.09;49.16
75938;BME280;64615;32.062;34.834;2023-01-08T09:13:16;101170.78;;;22.09;49.09
75938;BME280;64615;32.062;34.834;2023-01-08T09:15:42;101174.56;;;22.08;49.01
75938;BME280;64615;32.062;34.834;2023-01-08T09:18:08;101161.25;;;22.07;49.01
75938;BME280;64615;32.062;34.834;2023-01-08T09:20:34;101157.72;;;22.06;49.16
75938;BME280;64615;32.062;34.834;2023-01-08T09:23:01;101155.22;;;22.05;49.06
75938;BME280;64615;32.062;34.834;2023-01-08T09:25:27;101153.59;;;22.04;49.23
75938;BME280;64615;32.062;34.834;2023-01-08T09:28:05;101147.38;;;22.03;49.42
75938;BME280;64615;32.062;34.834;2023-01-08T09:30:31;101141.34;;;22.01;49.39
75938;BME280;64615;32.062;34.834;2023-01-08T09:32:58;101137.00;;;22.00;49.41
75938;BME280;64615;32.062;34.834;2023-01-08T09:35:25;101135.09;;;22.01;49.48
75938;BME280;64615;32.062;34.834;2023-01-08T10:06:27;101081.88;;;21.94;49.66
75938;BME280;64615;32.062;34.834;2023-01-08T10:08:52;101090.81;;;21.95;49.75
75938;BME280;64615;32.062;34.834;2023-01-08T10:11:19;101086.22;;;21.95;49.78
75938;BME280;64615;32.062;34.834;2023-01-08T10:13:49;101082.69;;;21.95;49.67
75938;BME280;64615;32.062;34.834;2023-01-08T10:16:35;101075.63;;;21.94;49.80
75938;BME280;64615;32.062;34.834;2023-01-08T10:19:03;101068.50;;;21.93;49.79
75938;BME280;64615;32.062;34.834;2023-01-08T10:21:37;101068.78;;;21.91;49.96
75938;BME280;64615;32.062;34.834;2023-01-08T10:24:03;101065.47;;;21.89;49.90
75938;BME280;64615;32.062;34.834;2023-01-08T10:26:32;101057.34;;;21.89;50.03
75938;BME280;64615;32.062;34.834;2023-01-08T10:29:18;101059.25;;;21.89;50.05
75938;BME280;64615;32.062;34.834;2023-01-08T10:32:07;101056.53;;;21.89;50.04
75938;BME280;64615;32.062;34.834;2023-01-08T10:34:48;101048.16;;;21.90;50.03
75938;BME280;64615;32.062;34.834;2023-01-08T10:39:45;101047.34;;;21.90;50.12
75938;BME280;64615;32.062;34.834;2023-01-08T10:42:15;101044.50;;;21.96;50.42
75938;BME280;64615;32.062;34.834;2023-01-08T10:47:21;101031.19;;;22.28;54.11
75938;BME280;64615;32.062;34.834;2023-01-08T10:49:47;101032.47;;;22.26;54.56
75938;BME280;64615;32.062;34.834;2023-01-08T12:15:55;100990.16;;;21.75;53.11
75938;BME280;64615;32.062;34.834;2023-01-08T12:19:14;100992.88;;;21.75;53.14
75938;BME280;64615;32.062;34.834;2023-01-08T12:26:08;100989.66;;;21.78;53.35
75938;BME280;64615;32.062;34.834;2023-01-08T12:29:11;100984.59;;;21.81;53.27
75938;BME280;64615;32.062;34.834;2023-01-08T12:35:31;100979.66;;;21.78;53.36
75938;BME280;64615;32.062;34.834;2023-01-08T12:38:44;100989.66;;;21.78;53.18
75938;BME280;64615;32.062;34.834;2023-01-08T12:41:38;100981.53;;;21.78;53.33
75938;BME280;64615;32.062;34.834;2023-01-08T12:52:31;100983.78;;;21.81;53.45
75938;BME280;64615;32.062;34.834;2023-01-08T12:58:30;100980.16;;;21.75;53.40
75938;BME280;64615;32.062;34.834;2023-01-08T13:01:34;100985.34;;;21.77;53.50
75938;BME280;64615;32.062;34.834;2023-01-08T13:04:38;100980.97;;;21.76;53.33
75938;BME280;64615;32.062;34.834;2023-01-08T13:07:04;100977.44;;;21.75;53.50
75938;BME280;64615;32.062;34.834;2023-01-08T13:09:30;100983.94;;;21.74;53.38
75938;BME280;64615;32.062;34.834;2023-01-08T13:11:58;100989.13;;;21.76;53.56
75938;BME280;64615;32.062;34.834;2023-01-08T13:14:25;100986.63;;;21.74;53.62
75938;BME280;64615;32.062;34.834;2023-01-08T13:17:05;100973.91;;;21.75;53.54
75938;BME280;64615;32.062;34.834;2023-01-08T13:19:42;100980.41;;;21.74;53.35
75938;BME280;64615;32.062;34.834;2023-01-08T13:22:25;100975.81;;;21.74;53.38
75938;BME280;64615;32.062;34.834;2023-01-08T13:25:29;100982.03;;;21.75;53.48
75938;BME280;64615;32.062;34.834;2023-01-08T13:27:53;100977.69;;;21.74;53.51
75938;BME280;64615;32.062;34.834;2023-01-08T13:30:39;100982.28;;;21.73;53.47
75938;BME280;64615;32.062;34.834;2023-01-08T13:36:27;100980.97;;;21.76;53.33
75938;BME280;64615;32.062;34.834;2023-01-08T13:39:21;100981.81;;;21.76;53.39
75938;BME280;64615;32.062;34.834;2023-01-08T13:42:00;100978.81;;;21.78;53.44
75938;BME280;64615;32.062;34.834;2023-01-08T13:44:29;100984.50;;;21.76;53.33
75938;BME280;64615;32.062;34.834;2023-01-08T13:46:57;100985.06;;;21.78;53.37
75938;BME280;64615;32.062;34.834;2023-01-08T13:49:34;100992.97;;;21.80;53.30
75938;BME280;64615;32.062;34.834;2023-01-08T14:18:12;100989.19;;;21.64;54.05
75938;BME280;64615;32.062;34.834;2023-01-08T14:20:40;100995.66;;;21.63;53.86
75938;BME280;64615;32.062;34.834;2023-01-08T14:23:15;100991.66;;;21.66;53.84
75938;BME280;64615;32.062;34.834;2023-01-08T14:25:46;100989.78;;;21.66;54.30
75938;BME280;64615;32.062;34.834;2023-01-08T14:28:17;100993.84;;;21.69;54.56
75938;BME280;64615;32.062;34.834;2023-01-08T14:30:52;100991.16;;;21.69;54.26
75938;BME280;64615;32.062;34.834;2023-01-08T14:33:23;100988.44;;;21.69;54.26
75938;BME280;64615;32.062;34.834;2023-01-08T14:35:51;100987.13;;;21.71;54.12
75938;BME280;64615;32.062;34.834;2023-01-08T14:38:19;100987.97;;;21.72;54.53
75938;BME280;64615;32.062;34.834;2023-01-08T14:41:02;100986.31;;;21.71;54.49
75938;BME280;64615;32.062;34.834;2023-01-08T14:43:32;100988.69;;;21.67;54.55
75938;BME280;64615;32.062;34.834;2023-01-08T14:46:17;100987.63;;;21.68;54.24
75938;BME280;64615;32.062;34.834;2023-01-08T14:48:44;100985.19;;;21.67;54.36
75938;BME280;64615;32.062;34.834;2023-01-08T14:51:13;100989.25;;;21.69;54.48
75938;BME280;64615;32.062;34.834;2023-01-08T14:53:49;100983.84;;;21.69;54.58
75938;BME280;64615;32.062;34.834;2023-01-08T14:56:25;100987.13;;;21.71;54.31
75938;BME280;64615;32.062;34.834;2023-01-08T14:58:52;100984.44;;;21.71;54.14
75938;BME280;64615;32.062;34.834;2023-01-08T15:01:26;100992.78;;;21.70;54.84
75938;BME280;64615;32.062;34.834;2023-01-08T15:04:17;100994.59;;;21.64;54.35
75938;BME280;64615;32.062;34.834;2023-01-08T15:06:43;101001.31;;;21.62;54.23
75938;BME280;64615;32.062;34.834;2023-01-08T15:09:35;100994.50;;;21.59;53.94
75938;BME280;64615;32.062;34.834;2023-01-08T15:12:03;100992.63;;;21.60;54.32
75938;BME280;64615;32.062;34.834;2023-01-08T16:24:25;101026.09;;;21.53;53.02
75938;BME280;64615;32.062;34.834;2023-01-08T16:26:51;101034.81;;;21.55;52.89
75938;BME280;64615;32.062;34.834;2023-01-08T17:33:04;101039.88;;;21.35;53.27
75938;BME280;64615;32.062;34.834;2023-01-08T17:35:29;101038.69;;;21.31;53.59
75938;BME280;64615;32.062;34.834;2023-01-08T17:37:55;101043.28;;;21.31;53.81
75938;BME280;64615;32.062;34.834;2023-01-08T17:40:21;101045.75;;;21.32;53.40
75938;BME280;64615;32.062;34.834;2023-01-08T17:42:46;101047.41;;;21.33;53.54
75938;BME280;64615;32.062;34.834;2023-01-08T17:45:12;101050.34;;;21.32;53.56
75938;BME280;64615;32.062;34.834;2023-01-08T18:03:11;101060.03;;;21.28;52.89
75938;BME280;64615;32.062;34.834;2023-01-08T18:05:37;101057.09;;;21.29;52.71
75938;BME280;64615;32.062;34.834;2023-01-08T18:08:03;101063.78;;;21.27;53.02
75938;BME280;64615;32.062;34.834;2023-01-08T18:10:29;101065.66;;;21.26;52.84
75938;BME280;64615;32.062;34.834;2023-01-08T18:12:54;101057.53;;;21.26;52.81
75938;BME280;64615;32.062;34.834;2023-01-08T18:15:20;101058.38;;;21.27;52.66
75938;BME280;64615;32.062;34.834;2023-01-08T18:17:46;101052.38;;;21.25;52.85
75938;BME280;64615;32.062;34.834;2023-01-08T18:20:12;101066.50;;;21.27;52.77
75938;BME280;64615;32.062;34.834;2023-01-08T18:22:38;101063.44;;;21.23;52.56
75938;BME280;64615;32.062;34.834;2023-01-08T18:25:04;101056.72;;;21.26;52.78
75938;BME280;64615;32.062;34.834;2023-01-08T18:27:30;101058.88;;;21.24;52.75
75938;BME280;64615;32.062;34.834;2023-01-08T18:29:56;101062.03;;;21.21;52.94
75938;BME280;64615;32.062;34.834;2023-01-08T18:32:21;101062.63;;;21.23;52.71
75938;BME280;64615;32.062;34.834;2023-01-08T18:34:51;101056.38;;;21.22;52.82
75938;BME280;64615;32.062;34.834;2023-01-08T18:37:18;101065.56;;;21.21;52.85
75938;BME280;64615;32.062;34.834;2023-01-08T18:39:47;101060.97;;;21.22;52.59
75938;BME280;64615;32.062;34.834;2023-01-08T18:42:13;101067.22;;;21.22;52.66
75938;BME280;64615;32.062;34.834;2023-01-08T18:44:54;101051.19;;;21.21;52.74
75938;BME280;64615;32.062;34.834;2023-01-08T18:47:25;101062.03;;;21.21;52.96
75938;BME280;64615;32.062;34.834;2023-01-08T18:49:52;101064.50;;;21.22;52.91
75938;BME280;64615;32.062;34.834;2023-01-08T18:52:20;101061.56;;;21.24;53.49
75938;BME280;64615;32.062;34.834;2023-01-08T18:54:45;101057.81;;;21.25;53.11
75938;BME280;64615;32.062;34.834;2023-01-08T18:57:11;101059.44;;;21.26;53.02
75938;BME280;64615;32.062;34.834;2023-01-08T19:57:43;101054.94;;;21.31;53.07
75938;BME280;64615;32.062;34.834;2023-01-08T20:00:09;101057.31;;;21.28;52.96
75938;BME280;64615;32.062;34.834;2023-01-08T20:02:35;101055.66;;;21.27;53.09
75938;BME280;64615;32.062;34.834;2023-01-08T20:05:00;101046.72;;;21.26;53.02
75938;BME280;64615;32.062;34.834;2023-01-08T20:07:26;101047.31;;;21.28;53.18
75938;BME280;64615;32.062;34.834;2023-01-08T20:09:52;101054.09;;;21.31;52.92
75938;BME280;64615;32.062;34.834;2023-01-08T20:12:17;101051.66;;;21.29;53.04
75938;BME280;64615;32.062;34.834;2023-01-08T20:14:43;101052.13;;;21.26;52.88
75938;BME280;64615;32.062;34.834;2023-01-08T20:17:09;101050.47;;;21.25;52.94
75938;BME280;64615;32.062;34.834;2023-01-08T20:19:36;101058.28;;;21.22;52.95
75938;BME280;64615;32.062;34.834;2023-01-08T20:22:02;101053.34;;;21.19;52.88
75938;BME280;64615;32.062;34.834;2023-01-08T20:24:27;101058.50;;;21.20;53.13
75938;BME280;64615;32.062;34.834;2023-01-08T20:26:54;101046.06;;;21.19;52.93
75938;BME280;64615;32.062;34.834;2023-01-08T20:29:20;101052.28;;;21.20;52.75
75938;BME280;64615;32.062;34.834;2023-01-08T20:31:48;101048.50;;;21.21;53.01
75938;BME280;64615;32.062;34.834;2023-01-08T20:34:14;101048.50;;;21.21;53.02
75938;BME280;64615;32.062;34.834;2023-01-08T20:36:42;101041.78;;;21.23;53.11
75938;BME280;64615;32.062;34.834;2023-01-08T21:24:34;101018.63;;;21.16;52.89
75938;BME280;64615;32.062;34.834;2023-01-08T21:27:00;101010.50;;;21.16;52.79
75938;BME280;64615;32.062;34.834;2023-01-08T21:29:26;101012.97;;;21.17;52.81
75938;BME280;64615;32.062;34.834;2023-01-08T21:31:52;101018.63;;;21.16;52.94
75938;BME280;64615;32.062;34.834;2023-01-08T21:34:19;101015.69;;;21.17;52.40
75938;BME280;64615;32.062;34.834;2023-01-08T21:36:45;101011.31;;;21.16;52.81
75938;BME280;64615;32.062;34.834;2023-01-08T21:39:11;101011.91;;;21.18;52.83
75938;BME280;64615;32.062;34.834;2023-01-08T21:41:37;100998.59;;;21.17;52.65
75938;BME280;64615;32.062;34.834;2023-01-08T21:44:23;101002.47;;;21.21;52.95
75938;BME280;64615;32.062;34.834;2023-01-08T21:47:13;100995.44;;;21.20;52.88
75938;BME280;64615;32.062;34.834;2023-01-08T21:49:39;100993.63;;;21.25;52.62
75938;BME280;64615;32.062;34.834;2023-01-08T21:52:05;100988.47;;;21.24;52.66
75938;BME280;64615;32.062;34.834;2023-01-08T21:54:50;100979.75;;;21.22;52.80
75938;BME280;64615;32.062;34.834;2023-01-08T21:57:16;100979.44;;;21.18;52.78
